Woodbine, Pennsylvania
Current Conditions -  °F | °C
As of 10:53 PM on Saturday 25 Oct 2014 (Local Time) from KLNS Reporting Station
Few Clouds Few Clouds  
Wind Chill: 59°   Ceiling: Unl
Heat Index: 59°   Visibility: 10mi
Dew Point: 44°   Wind: 8mph
Humidity: 58%   Direction: 240°WSW
Pressure: 29.64"   Gusts: NA
Location:  39.8258°N, 76.3995°W
Report Text: KLNS 260253Z AUTO 24007KT 10SM FEW080 15/07 A2964 RMK AO2 SLP036 T01500067 58016
Loading
Personal Weather Stations






























Interactive Weather Map
Tropical Storm Tracking
New forecast layout! Learn more

10-Day Weather Forecast

Advertisements
Track Severe Weather on mobile